Time;durP1;ratioP1;P1;durP2;ratioP2;P2;SDS_P1;SDS_P2;PMS_P1;PMS_P2;Temp;Humidity;BMP_temperature;BMP_pressure;BME280_temperature;BME280_humidity;BME280_pressure;Samples;Min_cycle;Max_cycle;Signal;HPM_P1;HPM_P2
2022/11/05 00:10:02;;;;;;;;;1.50;1.00;;;;;8.90;81.23;99185.38;5028349;28;45559;-78
2022/11/05 00:18:12;;;;;;;;;1.75;1.75;;;;;8.92;80.78;99215.13;5024145;28;45493;-79
2022/11/05 00:20:38;;;;;;;;;3.75;2.50;;;;;8.93;80.21;99206.31;5030980;28;45496;-79
2022/11/05 00:26:04;;;;;;;;;4.00;2.75;;;;;8.94;81.30;99200.16;5030466;28;45581;-79
2022/11/05 00:28:31;;;;;;;;;2.00;2.00;;;;;8.96;80.78;99219.38;5030260;28;46182;-79
2022/11/05 00:31:01;;;;;;;;;2.50;2.50;;;;;8.97;81.35;99213.22;5030578;28;45493;-79
2022/11/05 00:33:27;;;;;;;;;3.00;3.00;;;;;8.98;81.10;99207.03;5023816;28;45592;-79
2022/11/05 00:35:53;;;;;;;;;2.00;2.00;;;;;8.97;81.07;99214.97;5029734;28;45694;-79
2022/11/05 00:38:18;;;;;;;;;4.25;3.00;;;;;8.96;81.13;99210.63;5019585;28;47060;-79
2022/11/05 00:40:44;;;;;;;;;3.00;3.00;;;;;8.94;80.64;99215.06;5030744;28;45697;-79
2022/11/05 00:45:54;;;;;;;;;1.50;1.50;;;;;8.92;81.03;99227.41;5031986;28;46608;-79
2022/11/05 00:51:04;;;;;;;;;3.00;3.00;;;;;8.96;81.27;99239.53;5027110;28;45514;-80
2022/11/05 00:53:30;;;;;;;;;2.75;2.75;;;;;8.99;81.81;99231.56;5026687;28;45455;-79
2022/11/05 00:55:55;;;;;;;;;1.75;1.75;;;;;9.03;81.69;99248.97;5029997;28;45598;-80
2022/11/05 00:58:21;;;;;;;;;2.50;2.00;;;;;9.05;81.15;99237.47;5029469;28;45672;-79
2022/11/05 01:00:49;;;;;;;;;6.50;5.00;;;;;9.09;81.82;99247.00;5031794;28;45784;-79
2022/11/05 01:03:17;;;;;;;;;10.25;8.50;;;;;9.13;82.80;99260.91;5030263;28;45483;-79
2022/11/05 01:05:45;;;;;;;;;7.00;7.00;;;;;9.18;83.21;99252.88;5033443;28;45940;-79
2022/11/05 01:08:12;;;;;;;;;7.75;6.25;;;;;9.19;82.84;99251.97;5028300;28;46126;-79
2022/11/05 01:10:40;;;;;;;;;6.00;5.00;;;;;9.22;81.93;99250.06;5026507;28;45647;-79
2022/11/05 01:13:06;;;;;;;;;4.00;4.00;;;;;9.24;82.06;99248.25;5030795;28;45618;-79
2022/11/05 01:15:31;;;;;;;;;7.00;6.25;;;;;9.29;83.05;99251.59;5026338;28;46351;-79
2022/11/05 01:17:56;;;;;;;;;10.75;7.75;;;;;9.33;83.29;99257.63;5029080;28;45578;-79
2022/11/05 01:20:22;;;;;;;;;11.00;8.25;;;;;9.36;83.47;99254.91;5031258;28;45531;-78
2022/11/05 01:22:47;;;;;;;;;6.25;6.25;;;;;9.38;83.35;99253.91;5030726;28;45567;-79
2022/11/05 01:25:13;;;;;;;;;7.00;7.00;;;;;9.41;83.50;99252.97;5030114;28;45515;-79
2022/11/05 01:27:39;;;;;;;;;9.50;7.00;;;;;9.44;83.50;99256.34;5029824;28;46285;-79
2022/11/05 01:30:06;;;;;;;;;10.75;9.75;;;;;9.48;83.23;99258.91;5030280;28;45668;-79
2022/11/05 01:32:33;;;;;;;;;9.25;8.25;;;;;9.48;83.72;99254.50;5020361;28;45578;-79
2022/11/05 01:34:58;;;;;;;;;3.00;0.75;;;;;9.49;82.76;99250.94;5027935;28;45482;-79
2022/11/05 01:37:24;;;;;;;;;3.25;2.25;;;;;9.48;81.33;99251.88;5030216;28;45945;-79
2022/11/05 01:39:49;;;;;;;;;7.00;7.00;;;;;9.49;82.54;99244.81;5030524;28;45531;-79
2022/11/05 01:42:21;;;;;;;;;5.00;5.00;;;;;9.50;82.47;99249.19;5030696;28;45484;-79
2022/11/05 01:45:02;;;;;;;;;5.25;4.00;;;;;9.49;82.42;99245.69;5028883;28;45757;-79
2022/11/05 01:47:52;;;;;;;;;4.50;4.50;;;;;9.52;82.00;99247.38;5020764;28;45500;-78
2022/11/05 01:50:42;;;;;;;;;4.75;4.75;;;;;9.55;81.74;99252.53;5028848;28;45585;-79
2022/11/05 01:53:24;;;;;;;;;4.25;4.00;;;;;9.56;81.91;99248.97;5027936;28;45515;-79
2022/11/05 01:55:56;;;;;;;;;1.00;1.00;;;;;9.55;79.71;99244.63;5028638;28;45633;-79
2022/11/05 01:58:25;;;;;;;;;3.00;1.75;;;;;9.55;79.23;99247.25;5030276;28;45627;-79
2022/11/05 02:00:51;;;;;;;;;1.75;1.75;;;;;9.58;79.13;99245.38;5030080;28;45930;-79
2022/11/05 02:03:18;;;;;;;;;2.00;2.00;;;;;9.61;80.24;99247.91;5028807;28;45555;-79
2022/11/05 02:05:45;;;;;;;;;6.00;2.75;;;;;9.63;80.72;99253.13;5028526;28;45488;-78
2022/11/05 02:08:20;;;;;;;;;5.50;4.00;;;;;9.64;80.54;99257.47;5029739;28;46378;-79
2022/11/05 02:10:47;;;;;;;;;4.25;3.00;;;;;9.63;80.70;99259.22;5027579;28;45520;-79
2022/11/05 02:13:12;;;;;;;;;3.25;3.25;;;;;9.61;80.53;99262.81;5029967;28;45567;-79
2022/11/05 02:16:01;;;;;;;;;1.50;1.50;;;;;9.56;79.71;99256.84;5030133;28;45477;-79
2022/11/05 02:18:44;;;;;;;;;1.25;1.25;;;;;9.53;80.23;99263.09;5029500;28;45679;-78
2022/11/05 02:21:21;;;;;;;;;2.50;2.50;;;;;9.53;80.46;99262.25;5030349;28;45515;-79
2022/11/05 02:24:05;;;;;;;;;2.50;2.50;;;;;9.54;80.86;99270.09;5029220;28;45471;-79
2022/11/05 02:26:49;;;;;;;;;5.50;4.25;;;;;9.54;81.18;99269.22;5029467;28;45633;-79
2022/11/05 02:29:49;;;;;;;;;7.50;6.00;;;;;9.52;80.99;99269.28;5030011;28;45487;-79
2022/11/05 02:32:14;;;;;;;;;11.00;7.25;;;;;9.52;81.67;99276.31;5025945;28;45531;-80
2022/11/05 02:34:58;;;;;;;;;16.25;12.25;;;;;9.50;82.06;99278.13;5027141;28;46258;-77
2022/11/05 02:37:39;;;;;;;;;16.00;13.00;;;;;9.52;82.30;99273.69;5027700;28;45612;-79
2022/11/05 02:40:23;;;;;;;;;13.50;13.00;;;;;9.52;82.23;99276.31;5016406;28;47719;-80
2022/11/05 02:43:07;;;;;;;;;17.00;14.33;;;;;9.54;82.36;99280.63;5027023;28;45529;-79
2022/11/05 02:45:54;;;;;;;;;19.75;11.00;;;;;9.56;82.63;99283.16;5031130;28;45610;-80
2022/11/05 02:48:54;;;;;;;;;13.00;10.75;;;;;9.55;82.80;99286.75;5032619;28;45494;-80
2022/11/05 02:51:41;;;;;;;;;12.75;11.00;;;;;9.55;82.89;99289.38;5001371;28;45573;-80
2022/11/05 02:54:17;;;;;;;;;13.75;10.75;;;;;9.56;82.93;99294.56;5029582;28;45642;-80
2022/11/05 02:56:48;;;;;;;;;11.25;7.50;;;;;9.57;82.72;99298.91;5032568;28;45528;-80
2022/11/05 02:59:13;;;;;;;;;13.25;10.25;;;;;9.55;83.38;99298.09;5028903;28;45579;-80
2022/11/05 03:01:42;;;;;;;;;4.50;3.25;;;;;9.49;81.06;99300.94;5031572;28;46047;-79
2022/11/05 03:04:10;;;;;;;;;8.25;6.25;;;;;9.48;81.96;99304.50;5033012;28;45697;-80
2022/11/05 03:06:38;;;;;;;;;5.00;5.00;;;;;9.51;81.89;99308.81;5032196;28;45862;-80
2022/11/05 03:09:41;;;;;;;;;9.50;7.50;;;;;9.54;81.68;99321.88;5034303;28;45513;-80
2022/11/05 03:12:09;;;;;;;;;4.00;4.00;;;;;9.51;82.01;99321.97;5032858;28;46217;-80
2022/11/05 03:15:03;;;;;;;;;6.25;5.25;;;;;9.51;82.40;99328.09;5032600;28;45500;-80
2022/11/05 03:17:28;;;;;;;;;6.50;5.00;;;;;9.52;81.69;99342.97;5032961;28;45534;-78
2022/11/05 03:20:17;;;;;;;;;1.50;1.00;;;;;9.51;80.34;99325.44;5031902;28;45608;-78
2022/11/05 03:23:01;;;;;;;;;3.00;3.00;;;;;9.51;80.52;99328.09;5017432;28;46837;-78
2022/11/05 03:25:29;;;;;;;;;3.25;1.75;;;;;9.54;81.42;99337.66;5034537;28;45618;-78
2022/11/05 03:28:04;;;;;;;;;4.75;4.00;;;;;9.55;81.82;99334.13;5031840;28;45515;-79
2022/11/05 03:30:34;;;;;;;;;6.00;5.00;;;;;9.56;80.88;99343.69;5021019;28;45562;-78
2022/11/05 03:33:05;;;;;;;;;4.00;4.00;;;;;9.54;81.10;99343.78;5031767;28;46188;-78
2022/11/05 03:35:37;;;;;;;;;4.25;3.75;;;;;9.53;79.95;99346.47;5032488;28;45556;-78
2022/11/05 03:38:11;;;;;;;;;3.75;3.75;;;;;9.51;79.74;99343.88;5033602;28;45528;-78
2022/11/05 03:40:39;;;;;;;;;0.25;0.00;;;;;9.49;79.78;99348.31;5019315;28;45554;-78
2022/11/05 03:43:07;;;;;;;;;2.00;1.00;;;;;9.49;79.70;99345.69;5034061;28;45570;-78
2022/11/05 03:45:46;;;;;;;;;2.00;1.00;;;;;9.49;78.97;99358.00;5032171;28;45694;-78
2022/11/05 03:48:14;;;;;;;;;1.25;1.00;;;;;9.51;79.05;99359.66;5034244;28;45489;-79
2022/11/05 03:51:01;;;;;;;;;2.75;1.00;;;;;9.50;78.77;99355.31;5030024;28;45600;-78
2022/11/05 03:53:36;;;;;;;;;1.00;1.00;;;;;9.49;78.40;99358.00;5029864;28;45621;-78
2022/11/05 03:56:06;;;;;;;;;2.00;2.00;;;;;9.49;78.39;99353.59;5028336;28;45560;-78
2022/11/05 03:58:34;;;;;;;;;3.75;3.75;;;;;9.53;79.48;99351.72;5031997;28;45485;-78
2022/11/05 04:01:01;;;;;;;;;4.00;4.00;;;;;9.53;79.89;99359.63;5031324;28;45566;-78
2022/11/05 04:03:27;;;;;;;;;5.00;4.25;;;;;9.53;80.43;99362.25;5031957;28;46755;-79
2022/11/05 04:14:06;;;;;;;;;4.25;4.25;;;;;9.47;81.09;99380.84;5030709;28;45535;-79
2022/11/05 04:24:07;;;;;;;;;6.25;5.50;;;;;9.44;81.93;99369.50;5031018;28;45466;-79
2022/11/05 04:24:45;;;;;;;;;6.00;5.00;;;;;9.45;81.78;99367.75;5031986;28;45661;-79
2022/11/05 04:27:10;;;;;;;;;7.25;6.00;;;;;9.47;82.18;99381.72;5031825;28;46062;-79
2022/11/05 04:32:20;;;;;;;;;3.00;3.00;;;;;9.45;81.01;99368.59;5031023;28;46338;-79
2022/11/05 04:34:45;;;;;;;;;4.00;3.00;;;;;9.46;80.51;99377.34;5030316;28;45515;-79
2022/11/05 04:37:10;;;;;;;;;5.75;3.25;;;;;9.46;81.30;99374.72;5025038;28;45535;-79
2022/11/05 04:39:36;;;;;;;;;6.25;6.00;;;;;9.45;81.94;99379.13;5031023;28;45717;-79
2022/11/05 04:42:01;;;;;;;;;6.00;5.75;;;;;9.46;82.12;99372.09;5032776;28;45732;-79
2022/11/05 04:44:27;;;;;;;;;6.25;6.00;;;;;9.45;82.18;99379.13;5024368;28;47027;-79
2022/11/05 04:46:52;;;;;;;;;6.00;5.00;;;;;9.46;82.31;99374.72;5032973;28;45583;-79
2022/11/05 04:49:17;;;;;;;;;9.00;5.50;;;;;9.41;82.26;99379.25;5031928;28;46435;-78
2022/11/05 04:51:43;;;;;;;;;5.00;5.00;;;;;9.40;82.35;99374.91;5029736;28;45542;-79
2022/11/05 04:54:08;;;;;;;;;4.00;4.00;;;;;9.41;82.29;99385.38;5032600;28;46200;-79
2022/11/05 04:56:33;;;;;;;;;7.75;5.75;;;;;9.41;82.32;99384.53;5031750;28;45475;-79
2022/11/05 04:58:59;;;;;;;;;7.00;6.00;;;;;9.41;82.40;99388.03;5033605;28;45565;-78
2022/11/05 05:01:24;;;;;;;;;6.25;5.00;;;;;9.39;82.51;99389.84;5030016;28;45506;-79
2022/11/05 05:03:51;;;;;;;;;6.00;6.00;;;;;9.37;82.90;99388.19;5017149;28;46446;-79
2022/11/05 05:06:17;;;;;;;;;7.00;6.00;;;;;9.36;83.07;99400.47;5027868;28;45441;-79
2022/11/05 05:08:43;;;;;;;;;6.25;6.25;;;;;9.38;83.15;99403.06;5027169;28;45523;-78
2022/11/05 05:11:13;;;;;;;;;6.00;5.00;;;;;9.37;83.38;99410.09;5025763;28;45526;-79
2022/11/05 05:13:39;;;;;;;;;7.00;7.00;;;;;9.37;83.38;99404.84;5029622;28;46675;-79
2022/11/05 05:16:10;;;;;;;;;6.75;6.75;;;;;9.37;83.23;99403.97;5038239;28;45454;-79
2022/11/05 05:18:35;;;;;;;;;8.00;7.75;;;;;9.35;83.14;99406.66;5021605;28;45562;-79
2022/11/05 05:23:47;;;;;;;;;6.00;6.00;;;;;9.32;83.42;99421.66;5029182;28;45605;-79
2022/11/05 05:26:13;;;;;;;;;10.75;6.50;;;;;9.31;83.55;99420.81;5018949;28;45603;-78
2022/11/05 05:28:38;;;;;;;;;3.00;2.50;;;;;9.30;82.77;99426.97;5031148;28;45557;-79
2022/11/05 05:31:04;;;;;;;;;5.00;5.00;;;;;9.31;82.63;99422.56;5029879;28;45482;-78
2022/11/05 05:33:29;;;;;;;;;7.00;5.50;;;;;9.28;82.52;99426.16;5015895;28;47546;-78
2022/11/05 05:35:58;;;;;;;;;1.00;1.00;;;;;9.30;81.44;99428.72;5030525;28;45482;-79
2022/11/05 05:38:23;;;;;;;;;1.00;1.00;;;;;9.31;79.72;99425.19;5022487;28;45822;-79
2022/11/05 05:40:50;;;;;;;;;2.00;1.00;;;;;9.31;79.89;99428.69;5021255;28;45676;-78
2022/11/05 05:43:15;;;;;;;;;2.75;2.00;;;;;9.32;80.99;99432.19;5028865;28;45570;-79
2022/11/05 05:45:41;;;;;;;;;1.50;1.00;;;;;9.31;79.34;99431.31;5030293;28;45492;-79
2022/11/05 05:48:06;;;;;;;;;2.00;2.00;;;;;9.25;80.54;99441.16;5029044;28;45447;-78
2022/11/05 05:50:32;;;;;;;;;0.50;0.50;;;;;9.20;80.89;99441.31;5028638;28;45550;-78
2022/11/05 05:52:57;;;;;;;;;9.50;9.50;;;;;9.18;81.79;99445.75;5031710;28;45832;-79
2022/11/05 05:55:22;;;;;;;;;0.00;0.00;;;;;9.15;80.96;99464.25;5013345;28;45495;-79
2022/11/05 05:57:48;;;;;;;;;1.00;0.00;;;;;9.15;80.67;99451.09;5031953;28;45512;-79
2022/11/05 06:00:13;;;;;;;;;0.00;0.00;;;;;9.14;81.06;99452.00;5032035;28;45579;-78
2022/11/05 06:02:39;;;;;;;;;0.00;0.00;;;;;9.07;81.56;99453.94;5029360;28;45448;-78
2022/11/05 06:05:05;;;;;;;;;0.80;0.80;;;;;9.05;81.60;99463.63;5028802;28;45722;-78
2022/11/05 06:07:31;;;;;;;;;0.00;0.00;;;;;9.04;82.22;99459.31;5028791;28;45524;-78
2022/11/05 06:09:56;;;;;;;;;0.00;0.00;;;;;9.01;82.83;99458.53;5027947;28;45579;-78
2022/11/05 06:12:21;;;;;;;;;1.00;1.00;;;;;8.97;83.35;99459.50;5028947;28;45523;-79
2022/11/05 06:14:47;;;;;;;;;0.00;0.00;;;;;8.92;83.64;99461.41;5028160;28;45585;-78
2022/11/05 06:17:12;;;;;;;;;0.75;0.75;;;;;8.88;83.24;99457.97;5031153;28;46239;-79
2022/11/05 06:19:38;;;;;;;;;0.75;0.75;;;;;8.88;83.55;99459.78;5029373;28;45440;-78
2022/11/05 06:22:03;;;;;;;;;1.00;0.00;;;;;8.89;83.60;99464.09;5030167;28;46103;-78
2022/11/05 06:24:28;;;;;;;;;4.00;4.00;;;;;8.90;84.45;99471.09;5029669;28;45520;-78
2022/11/05 06:26:54;;;;;;;;;8.00;5.00;;;;;8.91;84.39;99473.69;5029345;28;45754;-78
2022/11/05 06:29:19;;;;;;;;;1.00;1.00;;;;;8.94;83.64;99468.34;5028916;28;45538;-79
2022/11/05 06:31:45;;;;;;;;;6.00;6.00;;;;;9.01;85.24;99471.69;5030202;28;46511;-65
2022/11/05 06:34:10;;;;;;;;;2.00;1.00;;;;;9.16;84.55;99483.53;5025650;28;45551;-68
2022/11/05 06:36:35;;;;;;;;;3.00;2.00;;;;;9.22;83.82;99480.69;5025767;28;45468;-68
2022/11/05 06:39:01;;;;;;;;;4.25;4.25;;;;;9.24;83.86;99474.50;5027111;28;45944;-68
2022/11/05 06:41:26;;;;;;;;;3.00;3.00;;;;;9.30;83.54;99471.69;5027883;28;46213;-67
2022/11/05 06:43:52;;;;;;;;;8.25;7.00;;;;;9.34;83.70;99473.34;5016049;28;45662;-67
2022/11/05 06:46:17;;;;;;;;;11.00;8.50;;;;;9.40;83.84;99477.53;5026017;28;45833;-67
2022/11/05 06:48:42;;;;;;;;;8.00;7.00;;;;;9.44;83.82;99472.13;5024439;28;45577;-68
2022/11/05 06:51:08;;;;;;;;;8.25;7.00;;;;;9.50;83.95;99475.50;5019744;28;46255;-68
2022/11/05 06:53:35;;;;;;;;;10.50;9.00;;;;;9.52;83.87;99482.44;5021112;28;45610;-68
2022/11/05 06:56:04;;;;;;;;;8.25;7.25;;;;;9.57;83.89;99490.19;5023693;28;45501;-67
2022/11/05 06:58:30;;;;;;;;;6.50;5.00;;;;;9.61;83.73;99494.47;5019684;28;46412;-67
2022/11/05 07:01:03;;;;;;;;;9.75;9.00;;;;;9.64;83.92;99495.22;5024464;28;45667;-68
2022/11/05 07:03:29;;;;;;;;;7.00;6.75;;;;;9.70;83.93;99494.19;5024343;28;45625;-68
2022/11/05 07:05:58;;;;;;;;;3.25;2.25;;;;;9.72;82.42;99487.94;5029635;28;45583;-68
2022/11/05 07:08:23;;;;;;;;;6.50;5.25;;;;;9.72;82.52;99487.94;5019651;28;45630;-68
2022/11/05 07:10:48;;;;;;;;;4.00;4.00;;;;;9.74;82.68;99486.13;5017757;28;45575;-68
2022/11/05 07:13:14;;;;;;;;;4.75;4.75;;;;;9.79;82.49;99489.50;5023835;28;45511;-68
2022/11/05 07:15:39;;;;;;;;;6.75;6.75;;;;;9.82;82.47;99488.53;5025514;28;45507;-67
2022/11/05 07:18:08;;;;;;;;;9.25;7.00;;;;;9.84;82.48;99493.75;5021695;28;45459;-68
2022/11/05 07:20:33;;;;;;;;;12.75;8.25;;;;;9.86;82.61;99481.41;5015752;28;47211;-68
2022/11/05 07:23:03;;;;;;;;;9.00;7.00;;;;;9.90;82.51;99501.44;5026570;28;45549;-68
2022/11/05 07:25:31;;;;;;;;;7.75;7.75;;;;;9.93;82.57;99502.22;5025314;28;45574;-68
2022/11/05 07:27:56;;;;;;;;;6.00;4.50;;;;;9.95;82.16;99499.53;5021800;28;45795;-67
2022/11/05 07:30:23;;;;;;;;;10.50;7.25;;;;;9.97;82.47;99501.22;5026094;28;45602;-68
2022/11/05 07:32:48;;;;;;;;;6.75;6.75;;;;;9.96;82.07;99494.22;5027244;28;45515;-68
2022/11/05 07:35:14;;;;;;;;;6.00;6.00;;;;;9.96;81.54;99496.88;5027944;28;45593;-68
2022/11/05 07:37:44;;;;;;;;;6.75;6.25;;;;;9.99;81.65;99502.03;5027126;28;45593;-68
2022/11/05 07:40:11;;;;;;;;;9.00;6.50;;;;;9.99;81.60;99501.19;5028514;28;45570;-67
2022/11/05 07:42:40;;;;;;;;;10.75;9.00;;;;;9.97;81.85;99505.63;5027175;28;45498;-67
2022/11/05 07:45:06;;;;;;;;;8.25;8.25;;;;;9.99;82.06;99522.25;5022615;28;45543;-67
2022/11/05 07:47:31;;;;;;;;;7.50;5.25;;;;;10.05;81.63;99515.00;5026329;28;45542;-68
2022/11/05 07:49:56;;;;;;;;;7.00;6.00;;;;;10.06;81.75;99508.81;5022937;28;45570;-67
2022/11/05 07:52:22;;;;;;;;;8.75;8.75;;;;;10.10;81.38;99522.75;5026566;28;45740;-67
2022/11/05 07:54:47;;;;;;;;;8.00;8.00;;;;;10.13;81.46;99528.81;5026134;28;45812;-67
2022/11/05 07:57:13;;;;;;;;;7.50;7.00;;;;;10.18;81.09;99533.06;5027651;28;45680;-68
2022/11/05 07:59:38;;;;;;;;;7.25;6.00;;;;;10.19;81.03;99525.16;5022543;28;46915;-67
2022/11/05 08:02:04;;;;;;;;;9.75;8.25;;;;;10.22;81.24;99527.66;5029339;28;45662;-67
2022/11/05 08:04:29;;;;;;;;;10.25;8.75;;;;;10.29;81.33;99525.72;5022012;28;45496;-68
2022/11/05 08:06:54;;;;;;;;;10.00;9.00;;;;;10.34;81.11;99522.03;5023969;28;45424;-67
2022/11/05 08:09:20;;;;;;;;;5.25;4.50;;;;;10.38;80.71;99526.28;5026033;28;46383;-68
2022/11/05 08:11:45;;;;;;;;;8.00;6.00;;;;;10.39;80.38;99521.88;5026798;28;45838;-67
2022/11/05 08:14:10;;;;;;;;;6.75;6.75;;;;;10.45;80.69;99529.56;5029732;28;45432;-67
2022/11/05 08:16:36;;;;;;;;;2.00;1.00;;;;;10.48;79.88;99521.56;5014190;28;45594;-68
2022/11/05 08:19:01;;;;;;;;;8.00;8.00;;;;;10.55;80.07;99532.78;5028192;28;45456;-67
2022/11/05 08:21:26;;;;;;;;;7.25;6.50;;;;;10.57;80.25;99531.78;5019464;28;45585;-67
2022/11/05 08:23:52;;;;;;;;;4.75;3.50;;;;;10.60;79.79;99534.31;5022364;28;45671;-69
2022/11/05 08:26:18;;;;;;;;;8.00;8.00;;;;;10.64;79.73;99532.47;5023362;28;45755;-70
2022/11/05 08:28:43;;;;;;;;;8.75;8.00;;;;;10.69;79.90;99538.44;5026886;28;46472;-68
2022/11/05 08:31:09;;;;;;;;;4.50;3.50;;;;;10.77;79.74;99549.56;5023635;28;45514;-68
2022/11/05 08:33:34;;;;;;;;;9.75;8.75;;;;;10.83;79.77;99533.56;5024054;28;45939;-67
2022/11/05 08:36:04;;;;;;;;;6.25;6.25;;;;;10.90;78.96;99545.59;5024956;28;45570;-67
2022/11/05 08:38:29;;;;;;;;;8.00;8.00;;;;;10.93;79.35;99536.72;5026922;28;46284;-67
2022/11/05 08:40:56;;;;;;;;;7.75;7.25;;;;;10.99;79.64;99542.66;5027210;28;45729;-67
2022/11/05 08:43:22;;;;;;;;;6.00;6.00;;;;;11.02;78.80;99542.56;5022594;28;45498;-67
2022/11/05 08:45:48;;;;;;;;;9.75;6.75;;;;;11.05;78.60;99537.19;5022711;28;45533;-67
2022/11/05 08:48:16;;;;;;;;;6.50;6.50;;;;;11.14;78.66;99549.16;5023760;28;45852;-67
2022/11/05 08:50:42;;;;;;;;;6.75;5.00;;;;;11.22;78.47;99541.84;5023288;28;45515;-67
2022/11/05 08:53:08;;;;;;;;;7.25;7.25;;;;;11.30;78.41;99550.34;5028851;28;45547;-67
2022/11/05 08:55:34;;;;;;;;;7.00;7.00;;;;;11.37;78.02;99543.94;5025771;28;45638;-67
2022/11/05 08:58:05;;;;;;;;;8.00;5.00;;;;;11.46;77.36;99545.34;5024697;28;46744;-67
2022/11/05 09:00:34;;;;;;;;;8.75;7.75;;;;;11.52;76.84;99553.94;5026749;28;45526;-67
2022/11/05 09:03:01;;;;;;;;;4.75;4.75;;;;;11.54;75.97;99557.38;5027966;28;45601;-67
2022/11/05 09:05:29;;;;;;;;;6.75;6.75;;;;;11.53;76.32;99545.09;5023913;28;45534;-67
2022/11/05 09:07:55;;;;;;;;;8.25;6.50;;;;;11.57;76.79;99540.53;5022823;28;45598;-67
2022/11/05 09:10:20;;;;;;;;;6.00;5.00;;;;;11.59;75.69;99538.69;5026273;28;45608;-67
2022/11/05 09:12:46;;;;;;;;;7.00;6.75;;;;;11.66;75.83;99540.19;5026918;28;45858;-67
2022/11/05 09:15:11;;;;;;;;;4.00;4.00;;;;;11.71;75.83;99538.25;5025722;28;45655;-67
2022/11/05 09:17:37;;;;;;;;;6.75;6.75;;;;;11.76;75.05;99538.09;5024923;28;45660;-67
2022/11/05 09:20:05;;;;;;;;;4.75;4.75;;;;;11.82;74.47;99544.00;5015781;28;45702;-67
2022/11/05 09:22:31;;;;;;;;;3.75;3.25;;;;;11.90;74.21;99542.88;5024779;28;45468;-67
2022/11/05 09:24:56;;;;;;;;;1.00;1.00;;;;;11.96;74.13;99535.56;5016469;28;45689;-67
2022/11/05 09:27:21;;;;;;;;;3.00;3.00;;;;;12.02;73.03;99531.81;5022621;28;46344;-67
2022/11/05 09:29:47;;;;;;;;;3.50;3.00;;;;;12.09;73.15;99544.72;5022814;28;45582;-67
2022/11/05 09:32:17;;;;;;;;;2.00;2.00;;;;;12.15;73.15;99536.56;5026886;28;45838;-67
2022/11/05 09:34:43;;;;;;;;;11.75;11.50;;;;;12.11;72.38;99537.59;5022156;28;45546;-67
2022/11/05 09:37:09;;;;;;;;;1.25;1.25;;;;;12.14;72.95;99532.19;5024512;28;46062;-68
2022/11/05 09:39:34;;;;;;;;;3.00;1.75;;;;;12.13;73.01;99541.03;5020651;28;45575;-68
2022/11/05 09:42:05;;;;;;;;;1.25;1.25;;;;;12.09;74.74;99538.56;5018417;28;45599;-68
2022/11/05 09:44:46;;;;;;;;;3.00;2.00;;;;;12.02;72.19;99537.09;5025494;28;45539;-67
2022/11/05 09:47:21;;;;;;;;;1.50;1.50;;;;;12.03;72.88;99529.13;5008827;28;46785;-68
2022/11/05 09:49:51;;;;;;;;;1.00;1.00;;;;;12.12;73.22;99547.25;5023838;28;45541;-68
2022/11/05 09:52:26;;;;;;;;;1.50;1.50;;;;;12.09;72.19;99541.19;5028493;28;45592;-68
2022/11/05 09:54:53;;;;;;;;;2.00;2.00;;;;;12.01;72.08;99551.22;5022878;28;46478;-68
2022/11/05 09:57:24;;;;;;;;;1.50;1.00;;;;;11.93;70.49;99555.94;5022823;28;45928;-68
2022/11/05 09:59:56;;;;;;;;;0.40;0.40;;;;;11.87;72.04;99552.63;5024128;28;45605;-68
2022/11/05 10:02:34;;;;;;;;;0.00;0.00;;;;;11.85;70.89;99557.13;5025999;28;45657;-68
2022/11/05 10:05:04;;;;;;;;;3.00;1.00;;;;;11.86;71.64;99553.56;5020809;28;45619;-68
2022/11/05 10:07:37;;;;;;;;;1.00;1.00;;;;;11.92;71.55;99555.06;5025428;28;45654;-67
2022/11/05 10:10:06;;;;;;;;;2.40;2.00;;;;;11.92;72.16;99549.78;5025374;28;45691;-68
2022/11/05 10:12:34;;;;;;;;;1.00;1.00;;;;;11.88;72.38;99569.34;5023241;28;45550;-68
2022/11/05 10:15:11;;;;;;;;;3.00;2.00;;;;;11.83;72.45;99555.44;5020637;28;45702;-68
2022/11/05 10:17:41;;;;;;;;;2.00;2.00;;;;;11.86;72.93;99560.63;5016258;28;47174;-68
2022/11/05 10:20:19;;;;;;;;;3.00;1.00;;;;;11.85;72.95;99553.59;5021519;28;45500;-68
2022/11/05 10:22:45;;;;;;;;;2.75;2.75;;;;;11.85;71.58;99545.69;5026821;28;45912;-67
2022/11/05 10:25:20;;;;;;;;;1.00;1.00;;;;;11.88;69.46;99540.28;5024481;28;45770;-68
2022/11/05 10:27:52;;;;;;;;;1.00;1.00;;;;;11.92;70.56;99535.72;5027801;28;46267;-69
2022/11/05 10:30:18;;;;;;;;;4.00;2.75;;;;;12.01;70.38;99544.16;5024335;28;45612;-68
2022/11/05 10:32:46;;;;;;;;;1.25;0.00;;;;;12.12;70.60;99546.38;5026493;28;45679;-68
2022/11/05 10:35:17;;;;;;;;;2.00;1.25;;;;;12.22;70.77;99548.63;5023186;28;45642;-67
2022/11/05 10:37:45;;;;;;;;;3.25;3.25;;;;;12.31;71.24;99546.50;5024504;28;46260;-68
2022/11/05 10:40:16;;;;;;;;;1.00;1.00;;;;;12.34;69.54;99544.59;5025348;28;45602;-68
2022/11/05 10:42:53;;;;;;;;;0.80;0.80;;;;;12.40;68.82;99544.34;5027167;28;45465;-68
2022/11/05 10:45:36;;;;;;;;;1.50;1.50;;;;;12.43;69.69;99546.88;5021044;28;45817;-68
2022/11/05 10:48:19;;;;;;;;;1.00;1.00;;;;;12.46;67.59;99544.09;5020995;28;46272;-67
2022/11/05 10:50:46;;;;;;;;;1.00;1.00;;;;;12.44;68.07;99539.78;5017991;28;45565;-69
2022/11/05 10:53:17;;;;;;;;;1.00;1.00;;;;;12.45;67.57;99534.44;5023146;28;45683;-68
2022/11/05 10:55:48;;;;;;;;;2.00;2.00;;;;;12.47;67.22;99526.44;5020235;28;45841;-69
2022/11/05 10:58:14;;;;;;;;;1.00;1.00;;;;;12.44;66.85;99535.38;5020407;28;45476;-67
2022/11/05 11:00:41;;;;;;;;;1.00;1.00;;;;;12.40;66.10;99530.28;5021858;28;45775;-67
2022/11/05 11:03:35;;;;;;;;;2.00;2.00;;;;;12.38;67.02;99537.41;5024357;28;45514;-68
2022/11/05 11:06:04;;;;;;;;;1.00;1.00;;;;;12.39;67.83;99531.22;5016849;28;45533;-68
2022/11/05 11:08:32;;;;;;;;;1.00;1.00;;;;;12.39;67.82;99531.22;5025168;28;46469;-68
2022/11/05 11:11:01;;;;;;;;;2.00;1.40;;;;;12.42;65.96;99537.22;5026234;28;45496;-68
2022/11/05 11:13:47;;;;;;;;;1.00;1.00;;;;;12.38;66.28;99524.19;5030731;28;45479;-67
2022/11/05 11:16:22;;;;;;;;;3.00;1.25;;;;;12.31;68.47;99526.22;5029645;28;45595;-67
2022/11/05 11:18:56;;;;;;;;;0.00;0.00;;;;;12.30;67.60;99529.78;5027901;28;46474;-68
2022/11/05 11:21:22;;;;;;;;;1.20;1.20;;;;;12.35;67.18;99524.31;5027035;28;45515;-69
2022/11/05 11:23:55;;;;;;;;;9.50;8.50;;;;;12.44;67.28;99511.56;5027337;28;45645;-69
2022/11/05 11:26:24;;;;;;;;;3.00;3.00;;;;;12.53;67.45;99516.50;5026689;28;45698;-69
2022/11/05 11:28:58;;;;;;;;;2.00;2.00;;;;;12.61;68.23;99513.50;5029739;28;46485;-69
2022/11/05 11:31:27;;;;;;;;;2.00;2.00;;;;;12.63;67.24;99522.25;5028095;28;45595;-69
2022/11/05 11:34:06;;;;;;;;;4.75;4.75;;;;;12.65;66.78;99509.81;5022695;28;45651;-69
2022/11/05 11:36:41;;;;;;;;;3.00;3.00;;;;;12.74;66.93;99506.75;5029303;28;45607;-69
2022/11/05 11:39:14;;;;;;;;;2.25;2.00;;;;;12.78;67.88;99512.78;5023795;28;45782;-69
2022/11/05 11:41:42;;;;;;;;;2.80;2.80;;;;;12.76;67.06;99509.34;5033186;28;45623;-69
2022/11/05 11:44:25;;;;;;;;;3.00;3.00;;;;;12.73;64.84;99523.59;5029913;28;45662;-68
2022/11/05 11:46:54;;;;;;;;;4.00;3.00;;;;;12.64;66.06;99505.44;5026030;28;45653;-69
2022/11/05 11:49:56;;;;;;;;;2.00;2.00;;;;;12.50;64.05;99511.31;5024675;28;45799;-69
2022/11/05 11:52:31;;;;;;;;;2.00;2.00;;;;;12.40;65.96;99512.59;5013566;28;45543;-69
2022/11/05 11:55:11;;;;;;;;;4.25;2.00;;;;;12.31;63.86;99522.72;5026933;28;45457;-71
2022/11/05 11:57:49;;;;;;;;;1.75;1.75;;;;;12.25;64.68;99502.66;5024743;28;45624;-69
2022/11/05 12:00:16;;;;;;;;;4.25;3.50;;;;;12.21;64.74;99512.53;5026204;28;45561;-69
2022/11/05 12:02:44;;;;;;;;;2.80;2.80;;;;;12.18;65.36;99511.78;5026647;28;46330;-68
2022/11/05 12:05:37;;;;;;;;;2.00;2.00;;;;;12.15;65.22;99511.91;5025680;28;45491;-69
2022/11/05 12:08:28;;;;;;;;;2.00;2.00;;;;;12.16;66.20;99503.91;5032234;28;45559;-70
2022/11/05 12:11:03;;;;;;;;;3.75;3.50;;;;;12.15;65.68;99491.63;5024895;28;46357;-69
2022/11/05 12:14:07;;;;;;;;;2.00;2.00;;;;;12.16;64.15;99538.28;5020203;28;45907;-69
2022/11/05 12:16:50;;;;;;;;;4.25;2.25;;;;;12.16;66.12;99493.34;5028822;28;45654;-69
2022/11/05 12:19:44;;;;;;;;;0.00;0.00;;;;;12.21;64.69;99490.53;5028008;28;45491;-69
2022/11/05 12:22:35;;;;;;;;;2.00;2.00;;;;;12.24;65.37;99503.59;4999484;28;46470;-69
2022/11/05 12:25:38;;;;;;;;;3.00;3.00;;;;;12.31;65.39;99493.63;5025089;28;45669;-69
2022/11/05 12:28:23;;;;;;;;;4.75;3.00;;;;;12.34;65.64;99496.16;5009520;28;45538;-69
2022/11/05 12:31:21;;;;;;;;;3.25;2.50;;;;;12.36;65.03;99499.59;5030583;28;45759;-69
2022/11/05 12:33:59;;;;;;;;;3.00;3.00;;;;;12.37;64.31;99503.97;5019089;28;46613;-67